createdAt,value
2023-08-15T00:01:57.879Z,3.38
2023-08-15T00:04:24.601Z,3.17
2023-08-15T00:06:51.227Z,3.58
2023-08-15T00:09:17.833Z,3.30
2023-08-15T00:11:44.469Z,3.17
2023-08-15T00:14:12.258Z,6.43
2023-08-15T00:16:40.305Z,3.20
2023-08-15T00:19:07.183Z,3.10
2023-08-15T00:21:33.855Z,3.28
2023-08-15T00:24:00.472Z,3.40
2023-08-15T00:26:27.099Z,3.67
2023-08-15T00:28:53.736Z,3.53
2023-08-15T00:31:20.507Z,4.63
2023-08-15T00:33:48.527Z,4.57
2023-08-15T00:36:15.192Z,3.47
2023-08-15T00:38:41.822Z,3.25
2023-08-15T00:41:08.618Z,3.53
2023-08-15T00:43:35.230Z,2.88
2023-08-15T00:46:04.370Z,3.20
2023-08-15T00:48:32.632Z,3.30
2023-08-15T00:51:02.132Z,3.37
2023-08-15T00:53:31.282Z,3.50
2023-08-15T00:55:59.158Z,3.80
2023-08-15T00:58:26.743Z,3.60
2023-08-15T01:00:53.805Z,4.10
2023-08-15T01:03:21.040Z,3.38
2023-08-15T01:05:48.798Z,3.22
2023-08-15T01:08:17.131Z,3.45
2023-08-15T01:10:44.836Z,3.78
2023-08-15T01:13:20.395Z,3.13
2023-08-15T01:15:50.965Z,3.53
2023-08-15T01:18:23.920Z,2.92
2023-08-15T01:20:51.644Z,3.20
2023-08-15T01:23:24.737Z,2.90
2023-08-15T01:25:54.934Z,2.38
2023-08-15T01:28:21.569Z,3.20
2023-08-15T01:30:55.364Z,3.38
2023-08-15T01:33:27.291Z,3.17
2023-08-15T01:35:59.818Z,3.05
2023-08-15T01:38:32.526Z,3.35
2023-08-15T01:41:02.272Z,2.63
2023-08-15T01:43:30.314Z,3.35
2023-08-15T01:45:57.549Z,3.30
2023-08-15T01:48:24.286Z,3.33
2023-08-15T01:50:50.995Z,3.20
2023-08-15T01:53:17.616Z,3.10
2023-08-15T01:55:44.214Z,2.67
2023-08-15T01:58:12.173Z,3.08
2023-08-15T02:00:38.817Z,2.78
2023-08-15T02:03:05.619Z,3.22
2023-08-15T02:05:34.939Z,2.80
2023-08-15T02:08:02.627Z,3.35
2023-08-15T02:10:29.250Z,2.80
2023-08-15T02:12:55.859Z,2.58
2023-08-15T02:15:23.867Z,2.80
2023-08-15T02:17:50.508Z,2.60
2023-08-15T02:20:17.340Z,3.10
2023-08-15T02:22:43.977Z,2.95
2023-08-15T02:25:10.610Z,2.80
2023-08-15T02:27:37.207Z,3.03
2023-08-15T02:30:06.083Z,2.75
2023-08-15T02:32:34.097Z,2.15
2023-08-15T02:35:00.862Z,2.72
2023-08-15T02:37:27.488Z,2.65
2023-08-15T02:39:54.065Z,2.60
2023-08-15T02:42:20.669Z,2.55
2023-08-15T02:44:47.258Z,2.95
2023-08-15T02:47:13.865Z,2.72
2023-08-15T02:49:41.790Z,2.70
2023-08-15T02:52:08.501Z,3.15
2023-08-15T02:54:35.139Z,2.75
2023-08-15T02:57:01.764Z,2.85
2023-08-15T02:59:28.439Z,2.97
2023-08-15T03:01:55.086Z,2.65
2023-08-15T03:04:21.759Z,2.70
2023-08-15T03:06:49.756Z,2.40
2023-08-15T03:09:17.962Z,2.80
2023-08-15T03:11:44.605Z,2.83
2023-08-15T03:14:11.551Z,2.85
2023-08-15T03:16:38.141Z,3.05
2023-08-15T03:19:04.887Z,2.75
2023-08-15T03:21:31.986Z,2.40
2023-08-15T03:23:59.968Z,2.47
2023-08-15T03:26:28.553Z,2.60
2023-08-15T03:28:57.269Z,2.53
2023-08-15T03:31:24.276Z,2.67
2023-08-15T03:33:51.084Z,2.45
2023-08-15T03:36:17.714Z,2.00
2023-08-15T03:38:44.459Z,2.17
2023-08-15T03:41:12.486Z,2.67
2023-08-15T03:43:39.176Z,2.50
2023-08-15T03:46:07.244Z,2.30
2023-08-15T03:48:34.365Z,2.47
2023-08-15T03:51:01.972Z,2.50
2023-08-15T03:53:29.347Z,2.63
2023-08-15T03:55:56.151Z,2.60
2023-08-15T03:58:24.720Z,2.45
2023-08-15T04:00:52.058Z,2.53
2023-08-15T04:03:18.719Z,2.50
2023-08-15T04:05:46.052Z,2.13
2023-08-15T04:08:12.963Z,2.22
2023-08-15T04:10:42.477Z,1.95
2023-08-15T04:13:09.545Z,2.25
2023-08-15T04:15:38.325Z,2.08
2023-08-15T04:18:06.736Z,2.38
2023-08-15T04:20:37.550Z,2.30
2023-08-15T04:23:05.015Z,2.20
2023-08-15T04:25:31.982Z,2.78
2023-08-15T04:27:58.711Z,2.40
2023-08-15T04:30:25.388Z,1.58
2023-08-15T04:32:54.637Z,2.30
2023-08-15T04:35:21.246Z,2.50
2023-08-15T04:37:47.856Z,2.22
2023-08-15T04:40:14.582Z,1.60
2023-08-15T04:42:41.623Z,2.10
2023-08-15T04:45:09.348Z,1.77
2023-08-15T04:47:36.350Z,2.15
2023-08-15T04:50:05.144Z,2.13
2023-08-15T04:52:31.803Z,2.45
2023-08-15T04:54:58.518Z,2.28
2023-08-15T04:57:25.262Z,2.60
2023-08-15T04:59:51.906Z,2.17
2023-08-15T05:02:18.520Z,2.47
2023-08-15T05:04:45.165Z,2.10
2023-08-15T05:07:13.141Z,2.13
2023-08-15T05:09:41.047Z,2.30
2023-08-15T05:12:08.290Z,2.33
2023-08-15T05:14:35.038Z,2.05
2023-08-15T05:17:01.701Z,1.98
2023-08-15T05:19:28.299Z,1.92
2023-08-15T05:21:56.947Z,1.80
2023-08-15T05:24:26.283Z,2.30
2023-08-15T05:26:53.160Z,2.08
2023-08-15T05:29:19.869Z,2.30
2023-08-15T05:31:46.501Z,2.03
2023-08-15T05:34:13.141Z,1.98
2023-08-15T05:36:39.804Z,1.88
2023-08-15T05:39:06.544Z,2.55
2023-08-15T05:41:34.621Z,1.95
2023-08-15T05:44:01.292Z,2.33
2023-08-15T05:46:27.952Z,2.10
2023-08-15T05:48:54.591Z,2.25
2023-08-15T05:51:21.235Z,2.53
2023-08-15T05:53:47.951Z,2.15
2023-08-15T05:56:14.637Z,2.28
2023-08-15T05:58:42.675Z,2.05
2023-08-15T06:01:09.522Z,1.90
2023-08-15T06:03:49.681Z,2.10
2023-08-15T06:06:19.021Z,2.08
2023-08-15T06:08:45.676Z,1.75
2023-08-15T06:11:12.273Z,2.10
2023-08-15T06:13:38.950Z,2.05
2023-08-15T06:16:06.925Z,2.08
2023-08-15T06:18:34.090Z,2.30
2023-08-15T06:21:00.718Z,2.00
2023-08-15T06:23:27.485Z,2.08
2023-08-15T06:25:54.169Z,2.33
2023-08-15T06:28:21.952Z,1.95
2023-08-15T06:30:48.634Z,2.00
2023-08-15T06:33:16.606Z,2.35
2023-08-15T06:35:43.277Z,2.17
2023-08-15T06:38:09.912Z,2.08
2023-08-15T06:40:36.803Z,1.90
2023-08-15T06:43:03.578Z,2.40
2023-08-15T06:45:30.220Z,2.10
2023-08-15T06:47:56.867Z,1.90
2023-08-15T06:50:24.840Z,2.08
2023-08-15T06:52:51.538Z,2.17
2023-08-15T06:55:18.418Z,1.92
2023-08-15T06:57:45.056Z,2.10
2023-08-15T07:00:13.535Z,1.80
2023-08-15T07:02:41.309Z,1.98
2023-08-15T07:05:08.625Z,2.22
2023-08-15T07:07:36.651Z,2.03
2023-08-15T07:10:03.574Z,2.28
2023-08-15T07:12:30.173Z,2.30
2023-08-15T07:14:56.797Z,2.00
2023-08-15T07:17:23.455Z,2.40
2023-08-15T07:19:50.106Z,2.20
2023-08-15T07:22:16.801Z,2.40
2023-08-15T07:24:44.811Z,1.95
2023-08-15T07:27:11.476Z,2.10
2023-08-15T07:29:38.161Z,1.98
2023-08-15T07:32:07.245Z,2.00
2023-08-15T07:34:34.013Z,2.13
2023-08-15T07:37:00.649Z,2.10
2023-08-15T07:39:27.269Z,2.20
2023-08-15T07:41:55.228Z,2.15
2023-08-15T07:44:21.938Z,2.17
2023-08-15T07:46:48.529Z,2.00
2023-08-15T07:49:15.762Z,2.30
2023-08-15T07:51:42.396Z,2.20
2023-08-15T07:54:09.043Z,2.15
2023-08-15T07:56:35.693Z,2.38
2023-08-15T07:59:04.492Z,1.95
2023-08-15T08:01:31.196Z,2.25
2023-08-15T08:03:58.317Z,2.05
2023-08-15T08:06:39.019Z,2.10
2023-08-15T08:09:07.237Z,2.60
2023-08-15T08:11:34.000Z,2.30
2023-08-15T08:14:00.645Z,2.20
2023-08-15T08:16:28.622Z,2.00
2023-08-15T08:18:55.282Z,1.83
2023-08-15T08:21:22.311Z,2.38
2023-08-15T08:23:48.951Z,2.60
2023-08-15T08:26:15.707Z,2.10
2023-08-15T08:28:42.351Z,2.28
2023-08-15T08:31:09.234Z,2.17
2023-08-15T08:33:37.266Z,2.05
2023-08-15T08:36:04.543Z,2.10
2023-08-15T08:38:31.276Z,1.95
2023-08-15T08:40:57.923Z,2.05
2023-08-15T08:43:24.655Z,2.20
2023-08-15T08:45:55.667Z,2.15
2023-08-15T08:48:23.278Z,2.20
2023-08-15T08:50:52.118Z,1.92
2023-08-15T08:53:18.841Z,1.90
2023-08-15T08:55:48.359Z,1.88
2023-08-15T08:58:15.735Z,2.20
2023-08-15T09:00:42.871Z,2.20
2023-08-15T09:03:10.881Z,2.38
2023-08-15T09:05:38.028Z,2.47
2023-08-15T09:08:07.385Z,2.28
2023-08-15T09:10:34.048Z,2.13
2023-08-15T09:13:01.287Z,2.40
2023-08-15T09:15:30.159Z,2.92
2023-08-15T09:18:00.215Z,2.47
2023-08-15T09:20:27.043Z,2.47
2023-08-15T09:22:57.032Z,2.35
2023-08-15T09:25:28.790Z,2.13
2023-08-15T09:27:55.806Z,1.92
2023-08-15T09:30:25.612Z,2.65
2023-08-15T09:32:52.302Z,2.35
2023-08-15T09:35:19.799Z,2.65
2023-08-15T09:37:48.153Z,3.17
2023-08-15T09:40:19.780Z,2.08
2023-08-15T09:42:47.888Z,2.33
2023-08-15T09:45:15.597Z,2.63
2023-08-15T09:47:43.360Z,2.72
2023-08-15T09:50:12.923Z,2.83
2023-08-15T09:52:41.974Z,2.50
2023-08-15T09:57:36.915Z,2.85
2023-08-15T10:00:07.223Z,2.53
2023-08-15T10:02:43.604Z,2.58
2023-08-15T10:05:12.619Z,2.40
2023-08-15T10:07:43.245Z,2.30
2023-08-15T10:10:10.455Z,2.50
2023-08-15T10:12:39.196Z,2.15
2023-08-15T10:15:08.661Z,2.20
2023-08-15T10:17:36.397Z,2.20
2023-08-15T10:20:07.422Z,2.90
2023-08-15T10:22:35.380Z,2.40
2023-08-15T10:25:22.020Z,3.08
2023-08-15T10:27:50.545Z,3.08
2023-08-15T10:30:33.936Z,2.28
2023-08-15T10:33:02.703Z,2.25
2023-08-15T10:35:33.760Z,2.70
2023-08-15T10:38:14.316Z,2.35
2023-08-15T10:40:43.082Z,2.65
2023-08-15T10:43:13.965Z,2.35
2023-08-15T10:45:44.762Z,2.78
2023-08-15T10:48:11.840Z,2.65
2023-08-15T10:50:44.637Z,2.67
2023-08-15T10:53:11.334Z,3.13
2023-08-15T10:55:39.481Z,2.75
2023-08-15T10:58:08.393Z,3.08
2023-08-15T11:00:37.349Z,3.03
2023-08-15T11:03:07.876Z,3.17
2023-08-15T11:05:35.051Z,2.72
2023-08-15T11:08:12.808Z,2.72
2023-08-15T11:10:44.148Z,2.85
2023-08-15T11:13:11.253Z,2.42
2023-08-15T11:15:38.338Z,3.10
2023-08-15T11:18:06.551Z,3.10
2023-08-15T11:20:33.824Z,2.80
2023-08-15T11:23:00.948Z,2.83
2023-08-15T11:25:27.796Z,3.10
2023-08-15T11:27:54.562Z,3.00
2023-08-15T11:30:21.560Z,3.28
2023-08-15T11:32:49.803Z,3.00
2023-08-15T11:35:18.488Z,3.20
2023-08-15T11:37:45.193Z,2.92
2023-08-15T11:40:11.929Z,3.85
2023-08-15T11:42:39.118Z,3.75
2023-08-15T11:45:17.406Z,3.70
2023-08-15T11:47:56.114Z,3.80
2023-08-15T11:53:11.831Z,3.20
2023-08-15T11:55:40.062Z,3.50
2023-08-15T11:58:29.052Z,4.45
2023-08-15T12:00:56.750Z,3.77
2023-08-15T12:03:26.156Z,3.80
2023-08-15T12:05:55.887Z,3.70
2023-08-15T12:08:26.517Z,3.33
2023-08-15T12:10:54.214Z,3.95
2023-08-15T12:13:29.770Z,3.95
2023-08-15T12:15:56.490Z,3.53
2023-08-15T12:18:23.205Z,3.33
2023-08-15T12:20:49.866Z,3.25
2023-08-15T12:23:23.138Z,3.58
2023-08-15T12:25:53.792Z,3.40
2023-08-15T12:28:20.434Z,3.10
2023-08-15T12:30:47.375Z,3.40
2023-08-15T12:33:18.364Z,3.47
2023-08-15T12:35:53.936Z,3.28
2023-08-15T12:38:21.960Z,3.17
2023-08-15T12:40:48.605Z,3.40
2023-08-15T12:43:15.321Z,3.15
2023-08-15T12:45:42.046Z,3.60
2023-08-15T12:48:08.911Z,4.03
2023-08-15T12:50:35.671Z,3.67
2023-08-15T12:53:02.349Z,3.90
2023-08-15T12:55:30.341Z,3.53
2023-08-15T12:57:57.008Z,3.70
2023-08-15T13:00:23.906Z,3.97
2023-08-15T13:02:50.964Z,3.72
2023-08-15T13:05:17.875Z,3.90
2023-08-15T13:07:44.550Z,3.80
2023-08-15T13:10:11.174Z,2.40
2023-08-15T13:12:39.128Z,3.25
2023-08-15T13:15:07.407Z,3.25
2023-08-15T13:17:34.103Z,3.35
2023-08-15T13:20:00.740Z,3.55
2023-08-15T13:22:27.468Z,3.40
2023-08-15T13:24:54.291Z,3.30
2023-08-15T13:27:20.996Z,3.30
2023-08-15T13:29:49.090Z,3.55
2023-08-15T13:32:15.730Z,2.83
2023-08-15T13:34:42.385Z,3.00
2023-08-15T13:37:09.015Z,3.00
2023-08-15T13:39:35.957Z,3.60
2023-08-15T13:42:02.680Z,3.03
2023-08-15T13:44:29.416Z,2.83
2023-08-15T13:46:57.451Z,3.25
2023-08-15T13:49:24.168Z,3.57
2023-08-15T13:51:50.808Z,3.08
2023-08-15T13:54:17.501Z,3.17
2023-08-15T13:56:44.152Z,2.60
2023-08-15T13:59:10.828Z,2.75
2023-08-15T14:01:37.527Z,2.65
2023-08-15T14:04:06.103Z,2.72
2023-08-15T14:06:32.831Z,2.42
2023-08-15T14:08:59.677Z,3.30
2023-08-15T14:11:26.433Z,2.90
2023-08-15T14:13:53.074Z,3.10
2023-08-15T14:16:20.010Z,3.58
2023-08-15T14:18:47.133Z,3.50
2023-08-15T14:21:15.888Z,3.10
2023-08-15T14:23:45.429Z,3.08
2023-08-15T14:26:12.299Z,2.88
2023-08-15T14:28:39.072Z,3.30
2023-08-15T14:31:05.873Z,2.70
2023-08-15T14:33:32.886Z,3.00
2023-08-15T14:35:59.754Z,2.75
2023-08-15T14:38:28.300Z,2.70
2023-08-15T14:40:55.046Z,3.05
2023-08-15T14:43:21.674Z,3.10
2023-08-15T14:45:48.309Z,3.00
2023-08-15T14:48:14.981Z,3.08
2023-08-15T14:50:42.485Z,2.70
2023-08-15T14:53:09.254Z,2.55
2023-08-15T14:55:37.287Z,2.90
2023-08-15T14:58:04.418Z,2.78
2023-08-15T15:00:31.056Z,2.92
2023-08-15T15:02:57.860Z,5.30
2023-08-15T15:05:24.610Z,3.25
2023-08-15T15:07:51.246Z,2.80
2023-08-15T15:10:17.938Z,3.38
2023-08-15T15:12:46.331Z,2.97
2023-08-15T15:15:13.188Z,2.60
2023-08-15T15:17:40.063Z,3.63
2023-08-15T15:20:08.006Z,2.67
2023-08-15T15:22:34.751Z,2.55
2023-08-15T15:25:01.524Z,3.00
2023-08-15T15:27:28.207Z,2.85
2023-08-15T15:29:56.209Z,2.55
2023-08-15T15:32:23.038Z,2.88
2023-08-15T15:34:49.982Z,3.22
2023-08-15T15:37:16.619Z,2.83
2023-08-15T15:39:43.276Z,2.97
2023-08-15T15:42:10.102Z,3.00
2023-08-15T15:44:37.003Z,2.95
2023-08-15T15:47:05.292Z,3.25
2023-08-15T15:49:31.976Z,2.95
2023-08-15T15:51:58.908Z,3.00
2023-08-15T15:54:25.569Z,3.05
2023-08-15T15:56:52.271Z,3.63
2023-08-15T15:59:19.718Z,5.10
2023-08-15T16:01:46.406Z,3.92
2023-08-15T16:04:14.434Z,2.83
2023-08-15T16:06:41.218Z,2.95
2023-08-15T16:09:07.916Z,3.20
2023-08-15T16:11:34.636Z,2.65
2023-08-15T16:14:01.290Z,3.40
2023-08-15T16:16:29.072Z,3.10
2023-08-15T16:18:55.694Z,2.95
2023-08-15T16:21:23.745Z,2.92
2023-08-15T16:23:50.444Z,3.10
2023-08-15T16:26:18.434Z,2.90
2023-08-15T16:28:46.219Z,2.88
2023-08-15T16:31:13.867Z,2.50
2023-08-15T16:33:40.519Z,2.70
2023-08-15T16:36:07.176Z,2.70
2023-08-15T16:38:35.190Z,2.80
2023-08-15T16:41:01.818Z,2.80
2023-08-15T16:43:28.525Z,3.28
2023-08-15T16:45:55.216Z,3.35
2023-08-15T16:48:21.984Z,3.00
2023-08-15T16:50:48.751Z,3.00
2023-08-15T16:53:15.725Z,2.95
2023-08-15T16:55:46.110Z,3.05
2023-08-15T16:58:13.828Z,3.42
2023-08-15T17:00:41.091Z,3.20
2023-08-15T17:03:07.986Z,3.05
2023-08-15T17:05:34.785Z,3.00
2023-08-15T17:08:01.416Z,2.80
2023-08-15T17:10:28.333Z,3.00
2023-08-15T17:12:56.694Z,2.80
2023-08-15T17:15:23.291Z,2.67
2023-08-15T17:17:50.211Z,3.17
2023-08-15T17:20:17.074Z,2.78
2023-08-15T17:22:45.309Z,3.20
2023-08-15T17:25:11.936Z,3.53
2023-08-15T17:27:38.580Z,8.85
2023-08-15T17:30:07.912Z,4.55
2023-08-15T17:32:34.606Z,3.50
2023-08-15T17:35:01.273Z,3.55
2023-08-15T17:37:28.068Z,3.53
2023-08-15T17:39:54.701Z,2.90
2023-08-15T17:42:21.553Z,2.88
2023-08-15T17:44:48.557Z,2.80
2023-08-15T17:47:16.542Z,3.33
2023-08-15T17:49:43.198Z,3.30
2023-08-15T17:52:10.141Z,3.20
2023-08-15T17:54:36.785Z,3.20
2023-08-15T17:57:05.314Z,3.22
2023-08-15T17:59:32.023Z,3.38
2023-08-15T18:02:00.835Z,3.67
2023-08-15T18:04:29.298Z,3.22
2023-08-15T18:06:55.978Z,3.35
2023-08-15T18:09:25.786Z,2.65
2023-08-15T18:11:52.800Z,3.20
2023-08-15T18:14:20.341Z,3.05
2023-08-15T18:16:48.897Z,3.30
2023-08-15T18:19:19.456Z,3.17
2023-08-15T18:21:47.544Z,3.00
2023-08-15T18:24:14.219Z,2.72
2023-08-15T18:26:40.867Z,3.30
2023-08-15T18:29:07.494Z,3.05
2023-08-15T18:31:34.148Z,3.10
2023-08-15T18:34:00.821Z,3.58
2023-08-15T18:36:27.448Z,3.33
2023-08-15T18:38:55.432Z,3.78
2023-08-15T18:41:22.166Z,2.80
2023-08-15T18:43:48.793Z,3.00
2023-08-15T18:46:15.510Z,3.22
2023-08-15T18:48:42.193Z,3.08
2023-08-15T18:51:08.866Z,2.95
2023-08-15T18:53:35.513Z,3.25
2023-08-15T18:56:03.529Z,2.80
2023-08-15T18:58:31.369Z,3.10
2023-08-15T19:00:58.054Z,2.70
2023-08-15T19:03:25.464Z,2.47
2023-08-15T19:05:52.604Z,2.88
2023-08-15T19:08:19.285Z,3.30
2023-08-15T19:10:45.953Z,2.50
2023-08-15T19:13:14.002Z,2.75
2023-08-15T19:15:40.715Z,2.75
2023-08-15T19:18:07.621Z,2.47
2023-08-15T19:20:34.356Z,2.60
2023-08-15T19:23:01.147Z,2.67
2023-08-15T19:25:29.180Z,3.08
2023-08-15T19:27:55.910Z,2.95
2023-08-15T19:30:24.345Z,2.53
2023-08-15T19:32:51.495Z,2.92
2023-08-15T19:35:18.304Z,2.50
2023-08-15T19:37:45.289Z,2.63
2023-08-15T19:40:12.679Z,2.90
2023-08-15T19:42:42.342Z,2.40
2023-08-15T19:45:10.577Z,2.90
2023-08-15T19:47:39.215Z,2.33
2023-08-15T19:50:08.246Z,2.90
2023-08-15T19:55:04.225Z,2.45
2023-08-15T19:57:36.156Z,3.03
2023-08-15T20:00:02.974Z,2.92
2023-08-15T20:02:29.667Z,2.40
2023-08-15T20:04:57.760Z,2.20
2023-08-15T20:07:24.647Z,2.27
2023-08-15T20:10:04.106Z,2.30
2023-08-15T20:12:35.478Z,2.67
2023-08-15T20:15:02.195Z,2.22
2023-08-15T20:17:31.862Z,2.70
2023-08-15T20:20:00.290Z,2.53
2023-08-15T20:22:27.371Z,2.40
2023-08-15T20:24:54.636Z,2.85
2023-08-15T20:27:21.868Z,2.70
2023-08-15T20:29:51.461Z,2.60
2023-08-15T20:32:18.191Z,2.47
2023-08-15T20:34:44.887Z,2.83
2023-08-15T20:37:12.879Z,2.45
2023-08-15T20:39:39.581Z,2.67
2023-08-15T20:42:06.280Z,2.60
2023-08-15T20:44:33.116Z,2.40
2023-08-15T20:47:00.383Z,2.70
2023-08-15T20:49:27.235Z,2.45
2023-08-15T20:51:54.066Z,2.33
2023-08-15T20:54:22.082Z,2.63
2023-08-15T20:56:48.837Z,2.30
2023-08-15T20:59:15.496Z,2.65
2023-08-15T21:01:42.564Z,2.50
2023-08-15T21:04:09.309Z,2.53
2023-08-15T21:06:36.036Z,2.05
2023-08-15T21:09:02.777Z,2.42
2023-08-15T21:11:30.847Z,2.38
2023-08-15T21:13:58.915Z,1.98
2023-08-15T21:16:25.611Z,2.42
2023-08-15T21:18:52.230Z,2.20
2023-08-15T21:21:18.921Z,2.15
2023-08-15T21:23:45.538Z,2.17
2023-08-15T21:26:12.622Z,2.15
2023-08-15T21:28:40.646Z,2.00
2023-08-15T21:31:07.453Z,2.40
2023-08-15T21:33:34.254Z,2.40
2023-08-15T21:36:02.921Z,2.20
2023-08-15T21:38:29.572Z,2.10
2023-08-15T21:40:56.262Z,2.20
2023-08-15T21:43:22.894Z,2.97
2023-08-15T21:45:50.894Z,3.50
2023-08-15T21:48:17.646Z,3.50
2023-08-15T21:50:44.285Z,2.10
2023-08-15T21:53:11.008Z,2.50
2023-08-15T21:55:37.653Z,2.28
2023-08-15T21:58:04.565Z,2.53
2023-08-15T22:00:31.371Z,2.25
2023-08-15T22:02:59.413Z,2.47
2023-08-15T22:05:26.619Z,2.63
2023-08-15T22:07:53.761Z,2.20
2023-08-15T22:10:21.532Z,2.40
2023-08-15T22:12:49.895Z,2.17
2023-08-15T22:15:18.197Z,2.22
2023-08-15T22:17:50.367Z,2.20
2023-08-15T22:20:22.618Z,2.50
2023-08-15T22:22:49.466Z,1.90
2023-08-15T22:25:21.292Z,2.20
2023-08-15T22:27:49.831Z,2.95
2023-08-15T22:30:16.527Z,2.72
2023-08-15T22:32:43.150Z,2.20
2023-08-15T22:35:10.386Z,2.20
2023-08-15T22:37:38.355Z,2.30
2023-08-15T22:40:06.199Z,2.35
2023-08-15T22:42:32.851Z,2.60
2023-08-15T22:44:59.579Z,2.13
2023-08-15T22:47:26.315Z,2.20
2023-08-15T22:49:52.943Z,2.25
2023-08-15T22:52:19.548Z,2.58
2023-08-15T22:54:47.672Z,2.58
2023-08-15T22:57:14.331Z,2.03
2023-08-15T22:59:40.942Z,2.33
2023-08-15T23:02:07.563Z,2.25
2023-08-15T23:04:34.232Z,2.30
2023-08-15T23:07:01.021Z,2.40
2023-08-15T23:09:27.646Z,2.00
2023-08-15T23:11:55.626Z,2.00
2023-08-15T23:14:22.286Z,2.08
2023-08-15T23:16:48.893Z,2.88
2023-08-15T23:19:15.570Z,2.30
2023-08-15T23:21:42.666Z,2.00
2023-08-15T23:24:10.219Z,2.50
2023-08-15T23:26:37.149Z,2.17
2023-08-15T23:29:05.526Z,2.05
2023-08-15T23:31:33.597Z,2.23
2023-08-15T23:34:00.506Z,2.63
2023-08-15T23:36:27.278Z,2.28
2023-08-15T23:38:53.908Z,2.10
2023-08-15T23:41:20.503Z,2.10
2023-08-15T23:43:47.222Z,2.15
2023-08-15T23:46:16.160Z,2.22
2023-08-15T23:48:43.553Z,2.28
2023-08-15T23:51:10.221Z,2.42
2023-08-15T23:53:36.856Z,2.25
2023-08-15T23:56:04.169Z,2.30
2023-08-15T23:58:30.866Z,2.50
